sensor_id;sensor_type;location;lat;lon;timestamp;P1;durP1;ratioP1;P2;durP2;ratioP2
572;SDS011;271;51.114;13.780;2023-05-23T00:25:52;17.50;;;4.63;;
572;SDS011;271;51.114;13.780;2023-05-23T00:28:48;20.43;;;6.50;;
572;SDS011;271;51.114;13.780;2023-05-23T00:31:50;23.47;;;7.20;;
572;SDS011;271;51.114;13.780;2023-05-23T00:34:38;20.80;;;7.27;;
572;SDS011;271;51.114;13.780;2023-05-23T00:37:26;21.57;;;6.77;;
572;SDS011;271;51.114;13.780;2023-05-23T00:40:13;20.73;;;7.23;;
572;SDS011;271;51.114;13.780;2023-05-23T00:43:02;23.50;;;7.30;;
572;SDS011;271;51.114;13.780;2023-05-23T00:45:50;24.20;;;7.50;;
572;SDS011;271;51.114;13.780;2023-05-23T00:48:38;23.37;;;8.57;;
572;SDS011;271;51.114;13.780;2023-05-23T00:51:26;22.60;;;11.93;;
572;SDS011;271;51.114;13.780;2023-05-23T00:54:14;25.13;;;8.53;;
572;SDS011;271;51.114;13.780;2023-05-23T00:57:04;21.30;;;6.90;;
572;SDS011;271;51.114;13.780;2023-05-23T00:59:54;21.17;;;8.10;;
572;SDS011;271;51.114;13.780;2023-05-23T01:02:43;24.70;;;8.10;;
572;SDS011;271;51.114;13.780;2023-05-23T01:05:31;23.67;;;8.60;;
572;SDS011;271;51.114;13.780;2023-05-23T01:08:19;22.70;;;8.20;;
572;SDS011;271;51.114;13.780;2023-05-23T01:11:08;24.73;;;9.27;;
572;SDS011;271;51.114;13.780;2023-05-23T01:14:04;23.83;;;8.93;;
572;SDS011;271;51.114;13.780;2023-05-23T01:16:59;22.70;;;8.20;;
572;SDS011;271;51.114;13.780;2023-05-23T01:19:56;25.37;;;9.00;;
572;SDS011;271;51.114;13.780;2023-05-23T01:23:04;24.27;;;9.70;;
572;SDS011;271;51.114;13.780;2023-05-23T01:26:21;26.20;;;10.70;;
572;SDS011;271;51.114;13.780;2023-05-23T01:29:21;25.40;;;10.60;;
572;SDS011;271;51.114;13.780;2023-05-23T01:32:13;26.13;;;10.53;;
572;SDS011;271;51.114;13.780;2023-05-23T01:35:03;23.60;;;8.80;;
572;SDS011;271;51.114;13.780;2023-05-23T01:37:52;23.60;;;10.07;;
572;SDS011;271;51.114;13.780;2023-05-23T01:40:39;23.77;;;9.33;;
572;SDS011;271;51.114;13.780;2023-05-23T01:43:27;23.63;;;9.90;;
572;SDS011;271;51.114;13.780;2023-05-23T01:46:16;24.03;;;8.90;;
572;SDS011;271;51.114;13.780;2023-05-23T01:49:04;25.23;;;9.90;;
572;SDS011;271;51.114;13.780;2023-05-23T01:51:55;24.53;;;9.27;;
572;SDS011;271;51.114;13.780;2023-05-23T01:54:43;24.13;;;10.53;;
572;SDS011;271;51.114;13.780;2023-05-23T01:57:34;26.30;;;11.10;;
572;SDS011;271;51.114;13.780;2023-05-23T02:00:22;30.13;;;13.77;;
572;SDS011;271;51.114;13.780;2023-05-23T02:03:11;27.90;;;11.53;;
572;SDS011;271;51.114;13.780;2023-05-23T02:06:00;24.70;;;11.90;;
572;SDS011;271;51.114;13.780;2023-05-23T02:08:47;26.07;;;11.83;;
572;SDS011;271;51.114;13.780;2023-05-23T02:11:35;25.17;;;12.23;;
572;SDS011;271;51.114;13.780;2023-05-23T02:14:22;25.03;;;11.47;;
572;SDS011;271;51.114;13.780;2023-05-23T02:17:11;25.00;;;10.43;;
572;SDS011;271;51.114;13.780;2023-05-23T02:20:03;25.73;;;9.60;;
572;SDS011;271;51.114;13.780;2023-05-23T02:22:51;23.47;;;8.87;;
572;SDS011;271;51.114;13.780;2023-05-23T02:25:39;22.80;;;9.77;;
572;SDS011;271;51.114;13.780;2023-05-23T02:28:26;23.47;;;9.90;;
572;SDS011;271;51.114;13.780;2023-05-23T02:31:14;22.60;;;8.37;;
572;SDS011;271;51.114;13.780;2023-05-23T02:34:03;24.27;;;9.30;;
572;SDS011;271;51.114;13.780;2023-05-23T02:36:52;24.00;;;9.07;;
572;SDS011;271;51.114;13.780;2023-05-23T02:39:39;22.67;;;8.87;;
572;SDS011;271;51.114;13.780;2023-05-23T02:42:27;23.27;;;8.97;;
572;SDS011;271;51.114;13.780;2023-05-23T02:45:15;22.77;;;7.60;;
572;SDS011;271;51.114;13.780;2023-05-23T02:48:02;21.40;;;6.90;;
572;SDS011;271;51.114;13.780;2023-05-23T02:50:50;22.93;;;8.07;;
572;SDS011;271;51.114;13.780;2023-05-23T02:53:39;24.37;;;8.20;;
572;SDS011;271;51.114;13.780;2023-05-23T02:56:27;22.20;;;7.87;;
572;SDS011;271;51.114;13.780;2023-05-23T02:59:15;21.70;;;7.33;;
572;SDS011;271;51.114;13.780;2023-05-23T03:02:02;21.77;;;7.50;;
572;SDS011;271;51.114;13.780;2023-05-23T03:04:50;21.20;;;7.07;;
572;SDS011;271;51.114;13.780;2023-05-23T03:07:38;21.00;;;6.70;;
572;SDS011;271;51.114;13.780;2023-05-23T03:10:27;22.00;;;7.77;;
572;SDS011;271;51.114;13.780;2023-05-23T03:13:15;19.90;;;6.47;;
572;SDS011;271;51.114;13.780;2023-05-23T03:16:03;20.07;;;7.00;;
572;SDS011;271;51.114;13.780;2023-05-23T03:18:50;20.60;;;6.40;;
572;SDS011;271;51.114;13.780;2023-05-23T03:21:38;20.30;;;7.03;;
572;SDS011;271;51.114;13.780;2023-05-23T03:24:26;20.40;;;6.73;;
572;SDS011;271;51.114;13.780;2023-05-23T03:27:15;21.77;;;7.90;;
572;SDS011;271;51.114;13.780;2023-05-23T03:30:03;23.43;;;8.37;;
572;SDS011;271;51.114;13.780;2023-05-23T03:32:51;21.97;;;7.17;;
572;SDS011;271;51.114;13.780;2023-05-23T03:35:40;20.20;;;6.43;;
572;SDS011;271;51.114;13.780;2023-05-23T03:38:29;22.40;;;6.27;;
572;SDS011;271;51.114;13.780;2023-05-23T03:41:17;20.80;;;6.60;;
572;SDS011;271;51.114;13.780;2023-05-23T03:44:06;21.20;;;6.60;;
572;SDS011;271;51.114;13.780;2023-05-23T03:46:53;24.50;;;7.50;;
572;SDS011;271;51.114;13.780;2023-05-23T03:49:41;21.80;;;7.07;;
572;SDS011;271;51.114;13.780;2023-05-23T03:52:29;19.93;;;6.40;;
572;SDS011;271;51.114;13.780;2023-05-23T03:55:17;20.57;;;6.00;;
572;SDS011;271;51.114;13.780;2023-05-23T03:58:08;20.07;;;6.27;;
572;SDS011;271;51.114;13.780;2023-05-23T04:00:58;22.30;;;6.27;;
572;SDS011;271;51.114;13.780;2023-05-23T04:03:46;20.57;;;5.97;;
572;SDS011;271;51.114;13.780;2023-05-23T04:06:35;22.10;;;8.07;;
572;SDS011;271;51.114;13.780;2023-05-23T04:09:23;21.03;;;6.73;;
572;SDS011;271;51.114;13.780;2023-05-23T04:12:10;22.67;;;8.20;;
572;SDS011;271;51.114;13.780;2023-05-23T04:14:58;21.43;;;7.90;;
572;SDS011;271;51.114;13.780;2023-05-23T04:17:47;22.20;;;7.80;;
572;SDS011;271;51.114;13.780;2023-05-23T04:20:36;21.07;;;7.13;;
572;SDS011;271;51.114;13.780;2023-05-23T04:23:23;21.70;;;7.80;;
572;SDS011;271;51.114;13.780;2023-05-23T04:26:11;24.50;;;8.73;;
572;SDS011;271;51.114;13.780;2023-05-23T04:28:59;22.10;;;7.90;;
572;SDS011;271;51.114;13.780;2023-05-23T04:31:46;22.87;;;8.40;;
572;SDS011;271;51.114;13.780;2023-05-23T04:34:35;24.50;;;9.27;;
572;SDS011;271;51.114;13.780;2023-05-23T04:37:26;24.37;;;8.70;;
572;SDS011;271;51.114;13.780;2023-05-23T04:40:13;22.93;;;9.03;;
572;SDS011;271;51.114;13.780;2023-05-23T04:43:01;21.47;;;8.40;;
572;SDS011;271;51.114;13.780;2023-05-23T04:45:49;23.43;;;9.20;;
572;SDS011;271;51.114;13.780;2023-05-23T04:48:39;25.27;;;10.00;;
572;SDS011;271;51.114;13.780;2023-05-23T04:51:28;24.07;;;9.27;;
572;SDS011;271;51.114;13.780;2023-05-23T04:54:16;23.20;;;8.30;;
572;SDS011;271;51.114;13.780;2023-05-23T04:57:04;22.00;;;8.93;;
572;SDS011;271;51.114;13.780;2023-05-23T04:59:52;23.10;;;8.20;;
572;SDS011;271;51.114;13.780;2023-05-23T05:02:40;23.20;;;7.97;;
572;SDS011;271;51.114;13.780;2023-05-23T05:05:28;23.20;;;9.07;;
572;SDS011;271;51.114;13.780;2023-05-23T05:08:17;24.40;;;8.80;;
572;SDS011;271;51.114;13.780;2023-05-23T05:11:05;23.43;;;8.87;;
572;SDS011;271;51.114;13.780;2023-05-23T05:13:53;22.80;;;8.77;;
572;SDS011;271;51.114;13.780;2023-05-23T05:16:41;24.00;;;8.80;;
572;SDS011;271;51.114;13.780;2023-05-23T05:19:29;22.87;;;8.40;;
572;SDS011;271;51.114;13.780;2023-05-23T05:22:17;25.83;;;9.03;;
572;SDS011;271;51.114;13.780;2023-05-23T05:25:07;24.23;;;9.50;;
572;SDS011;271;51.114;13.780;2023-05-23T05:27:56;23.40;;;9.20;;
572;SDS011;271;51.114;13.780;2023-05-23T05:30:44;22.37;;;8.47;;
572;SDS011;271;51.114;13.780;2023-05-23T05:33:37;23.13;;;9.30;;
572;SDS011;271;51.114;13.780;2023-05-23T05:36:26;24.27;;;9.63;;
572;SDS011;271;51.114;13.780;2023-05-23T05:39:16;23.70;;;8.63;;
572;SDS011;271;51.114;13.780;2023-05-23T05:42:06;22.00;;;8.17;;
572;SDS011;271;51.114;13.780;2023-05-23T05:44:53;24.23;;;9.57;;
572;SDS011;271;51.114;13.780;2023-05-23T05:47:41;23.63;;;9.70;;
572;SDS011;271;51.114;13.780;2023-05-23T05:50:29;26.33;;;10.67;;
572;SDS011;271;51.114;13.780;2023-05-23T05:53:16;24.70;;;11.27;;
572;SDS011;271;51.114;13.780;2023-05-23T05:56:04;27.00;;;13.23;;
572;SDS011;271;51.114;13.780;2023-05-23T05:58:55;24.70;;;11.27;;
572;SDS011;271;51.114;13.780;2023-05-23T06:01:43;25.17;;;11.50;;
572;SDS011;271;51.114;13.780;2023-05-23T06:04:31;25.13;;;12.50;;
572;SDS011;271;51.114;13.780;2023-05-23T06:07:19;25.30;;;12.20;;
572;SDS011;271;51.114;13.780;2023-05-23T06:10:07;28.40;;;13.60;;
572;SDS011;271;51.114;13.780;2023-05-23T06:12:57;26.70;;;12.73;;
572;SDS011;271;51.114;13.780;2023-05-23T06:15:46;24.63;;;12.23;;
572;SDS011;271;51.114;13.780;2023-05-23T06:18:34;27.20;;;13.33;;
572;SDS011;271;51.114;13.780;2023-05-23T06:21:22;27.13;;;15.23;;
572;SDS011;271;51.114;13.780;2023-05-23T06:24:09;27.90;;;16.03;;
572;SDS011;271;51.114;13.780;2023-05-23T06:26:57;26.80;;;15.60;;
572;SDS011;271;51.114;13.780;2023-05-23T06:29:45;31.70;;;15.60;;
572;SDS011;271;51.114;13.780;2023-05-23T06:32:34;29.70;;;17.93;;
572;SDS011;271;51.114;13.780;2023-05-23T06:35:22;27.90;;;16.27;;
572;SDS011;271;51.114;13.780;2023-05-23T06:38:10;31.97;;;16.90;;
572;SDS011;271;51.114;13.780;2023-05-23T06:40:57;27.87;;;16.20;;
572;SDS011;271;51.114;13.780;2023-05-23T06:43:46;27.90;;;15.63;;
572;SDS011;271;51.114;13.780;2023-05-23T06:46:34;30.33;;;18.73;;
572;SDS011;271;51.114;13.780;2023-05-23T06:49:23;29.37;;;18.00;;
572;SDS011;271;51.114;13.780;2023-05-23T06:52:11;34.60;;;16.57;;
572;SDS011;271;51.114;13.780;2023-05-23T06:54:59;29.40;;;17.60;;
572;SDS011;271;51.114;13.780;2023-05-23T06:57:46;28.00;;;16.30;;
572;SDS011;271;51.114;13.780;2023-05-23T07:00:36;29.73;;;17.00;;
572;SDS011;271;51.114;13.780;2023-05-23T07:03:24;28.87;;;15.53;;
572;SDS011;271;51.114;13.780;2023-05-23T07:06:13;26.37;;;15.97;;
572;SDS011;271;51.114;13.780;2023-05-23T07:09:02;27.03;;;16.17;;
572;SDS011;271;51.114;13.780;2023-05-23T07:11:50;29.90;;;16.00;;
572;SDS011;271;51.114;13.780;2023-05-23T07:14:37;28.17;;;16.00;;
572;SDS011;271;51.114;13.780;2023-05-23T07:17:25;28.90;;;15.73;;
572;SDS011;271;51.114;13.780;2023-05-23T07:20:14;28.80;;;15.27;;
572;SDS011;271;51.114;13.780;2023-05-23T07:23:03;29.13;;;16.90;;
572;SDS011;271;51.114;13.780;2023-05-23T07:25:51;26.83;;;14.07;;
572;SDS011;271;51.114;13.780;2023-05-23T07:28:39;24.70;;;13.40;;
572;SDS011;271;51.114;13.780;2023-05-23T07:31:26;22.87;;;12.40;;
572;SDS011;271;51.114;13.780;2023-05-23T07:34:14;26.13;;;12.33;;
572;SDS011;271;51.114;13.780;2023-05-23T07:37:02;27.30;;;13.13;;
572;SDS011;271;51.114;13.780;2023-05-23T07:39:51;23.50;;;11.20;;
572;SDS011;271;51.114;13.780;2023-05-23T07:42:38;21.83;;;10.03;;
572;SDS011;271;51.114;13.780;2023-05-23T07:45:26;23.80;;;9.27;;
572;SDS011;271;51.114;13.780;2023-05-23T07:48:14;21.90;;;8.63;;
572;SDS011;271;51.114;13.780;2023-05-23T07:51:01;23.90;;;10.67;;
572;SDS011;271;51.114;13.780;2023-05-23T07:53:50;22.20;;;10.63;;
572;SDS011;271;51.114;13.780;2023-05-23T07:56:46;22.60;;;11.27;;
572;SDS011;271;51.114;13.780;2023-05-23T07:59:34;23.10;;;10.50;;
572;SDS011;271;51.114;13.780;2023-05-23T08:02:22;23.90;;;10.10;;
572;SDS011;271;51.114;13.780;2023-05-23T08:05:09;20.30;;;10.33;;
572;SDS011;271;51.114;13.780;2023-05-23T08:07:57;20.77;;;10.20;;
572;SDS011;271;51.114;13.780;2023-05-23T08:10:45;23.63;;;10.50;;
572;SDS011;271;51.114;13.780;2023-05-23T08:13:34;20.30;;;9.30;;
572;SDS011;271;51.114;13.780;2023-05-23T08:16:21;20.73;;;10.10;;
572;SDS011;271;51.114;13.780;2023-05-23T08:19:09;20.70;;;9.90;;
572;SDS011;271;51.114;13.780;2023-05-23T08:21:57;22.10;;;11.10;;
572;SDS011;271;51.114;13.780;2023-05-23T08:24:44;20.17;;;9.77;;
572;SDS011;271;51.114;13.780;2023-05-23T08:27:32;22.10;;;10.40;;
572;SDS011;271;51.114;13.780;2023-05-23T08:30:22;22.60;;;10.87;;
572;SDS011;271;51.114;13.780;2023-05-23T08:33:10;20.60;;;10.30;;
572;SDS011;271;51.114;13.780;2023-05-23T08:35:57;23.93;;;12.53;;
572;SDS011;271;51.114;13.780;2023-05-23T08:38:45;22.27;;;11.60;;
572;SDS011;271;51.114;13.780;2023-05-23T08:41:33;23.43;;;11.60;;
572;SDS011;271;51.114;13.780;2023-05-23T08:44:21;23.03;;;11.70;;
572;SDS011;271;51.114;13.780;2023-05-23T08:47:10;22.80;;;12.27;;
572;SDS011;271;51.114;13.780;2023-05-23T08:50:02;22.17;;;11.73;;
572;SDS011;271;51.114;13.780;2023-05-23T08:52:53;22.30;;;11.83;;
572;SDS011;271;51.114;13.780;2023-05-23T08:55:42;22.40;;;11.23;;
572;SDS011;271;51.114;13.780;2023-05-23T08:58:30;22.60;;;11.20;;
572;SDS011;271;51.114;13.780;2023-05-23T09:01:19;23.70;;;11.80;;
572;SDS011;271;51.114;13.780;2023-05-23T09:04:09;23.13;;;11.67;;
572;SDS011;271;51.114;13.780;2023-05-23T09:06:58;22.37;;;11.50;;
572;SDS011;271;51.114;13.780;2023-05-23T09:09:46;23.47;;;10.70;;
572;SDS011;271;51.114;13.780;2023-05-23T09:12:34;22.03;;;10.70;;
572;SDS011;271;51.114;13.780;2023-05-23T09:15:22;22.60;;;10.30;;
572;SDS011;271;51.114;13.780;2023-05-23T09:18:12;22.03;;;10.57;;
572;SDS011;271;51.114;13.780;2023-05-23T09:21:01;23.27;;;11.50;;
572;SDS011;271;51.114;13.780;2023-05-23T09:23:49;22.33;;;11.97;;
572;SDS011;271;51.114;13.780;2023-05-23T09:26:37;29.30;;;12.60;;
572;SDS011;271;51.114;13.780;2023-05-23T09:29:25;25.10;;;13.90;;
572;SDS011;271;51.114;13.780;2023-05-23T09:32:14;28.73;;;15.80;;
572;SDS011;271;51.114;13.780;2023-05-23T09:35:04;26.90;;;15.40;;
572;SDS011;271;51.114;13.780;2023-05-23T09:37:54;30.93;;;19.10;;
572;SDS011;271;51.114;13.780;2023-05-23T09:40:44;31.60;;;21.03;;
572;SDS011;271;51.114;13.780;2023-05-23T09:43:31;34.57;;;20.80;;
572;SDS011;271;51.114;13.780;2023-05-23T09:46:19;33.03;;;20.50;;
572;SDS011;271;51.114;13.780;2023-05-23T09:49:14;35.13;;;20.40;;
572;SDS011;271;51.114;13.780;2023-05-23T09:52:03;35.80;;;22.47;;
572;SDS011;271;51.114;13.780;2023-05-23T09:54:54;34.03;;;22.70;;
572;SDS011;271;51.114;13.780;2023-05-23T09:57:42;35.57;;;23.17;;
572;SDS011;271;51.114;13.780;2023-05-23T10:00:30;33.30;;;20.43;;
572;SDS011;271;51.114;13.780;2023-05-23T10:03:20;36.77;;;22.40;;
572;SDS011;271;51.114;13.780;2023-05-23T10:06:14;34.50;;;20.37;;
572;SDS011;271;51.114;13.780;2023-05-23T10:09:09;35.60;;;20.50;;
572;SDS011;271;51.114;13.780;2023-05-23T10:15:35;30.90;;;16.90;;
572;SDS011;271;51.114;13.780;2023-05-23T10:18:28;29.93;;;15.57;;
572;SDS011;271;51.114;13.780;2023-05-23T10:21:18;26.63;;;13.20;;
572;SDS011;271;51.114;13.780;2023-05-23T10:24:10;26.47;;;12.93;;
572;SDS011;271;51.114;13.780;2023-05-23T10:26:59;28.00;;;13.27;;
572;SDS011;271;51.114;13.780;2023-05-23T10:32:43;23.67;;;10.77;;
572;SDS011;271;51.114;13.780;2023-05-23T10:35:37;24.40;;;10.50;;
572;SDS011;271;51.114;13.780;2023-05-23T10:38:35;21.33;;;9.23;;
572;SDS011;271;51.114;13.780;2023-05-23T10:41:28;22.03;;;8.80;;
572;SDS011;271;51.114;13.780;2023-05-23T10:44:25;24.80;;;8.60;;
572;SDS011;271;51.114;13.780;2023-05-23T10:47:24;21.63;;;8.97;;
572;SDS011;271;51.114;13.780;2023-05-23T10:50:15;20.87;;;8.77;;
572;SDS011;271;51.114;13.780;2023-05-23T10:53:18;21.90;;;8.10;;
572;SDS011;271;51.114;13.780;2023-05-23T10:56:09;21.50;;;8.23;;
572;SDS011;271;51.114;13.780;2023-05-23T10:59:05;26.20;;;10.77;;
572;SDS011;271;51.114;13.780;2023-05-23T11:01:55;22.00;;;9.47;;
572;SDS011;271;51.114;13.780;2023-05-23T11:04:43;22.37;;;9.33;;
572;SDS011;271;51.114;13.780;2023-05-23T11:07:34;22.50;;;9.40;;
572;SDS011;271;51.114;13.780;2023-05-23T11:10:23;22.30;;;9.60;;
572;SDS011;271;51.114;13.780;2023-05-23T11:13:10;22.20;;;9.97;;
572;SDS011;271;51.114;13.780;2023-05-23T11:15:58;22.30;;;9.60;;
572;SDS011;271;51.114;13.780;2023-05-23T11:18:46;21.40;;;9.33;;
572;SDS011;271;51.114;13.780;2023-05-23T11:21:34;20.83;;;8.77;;
572;SDS011;271;51.114;13.780;2023-05-23T11:24:46;19.13;;;7.17;;
572;SDS011;271;51.114;13.780;2023-05-23T11:27:37;19.23;;;7.30;;
572;SDS011;271;51.114;13.780;2023-05-23T11:30:26;22.97;;;8.57;;
572;SDS011;271;51.114;13.780;2023-05-23T11:33:15;22.10;;;7.33;;
572;SDS011;271;51.114;13.780;2023-05-23T11:36:03;23.23;;;7.70;;
572;SDS011;271;51.114;13.780;2023-05-23T11:38:53;20.43;;;7.33;;
572;SDS011;271;51.114;13.780;2023-05-23T11:41:43;19.37;;;7.57;;
572;SDS011;271;51.114;13.780;2023-05-23T11:44:30;20.87;;;7.37;;
572;SDS011;271;51.114;13.780;2023-05-23T11:47:18;20.77;;;7.63;;
572;SDS011;271;51.114;13.780;2023-05-23T11:50:06;20.47;;;7.40;;
572;SDS011;271;51.114;13.780;2023-05-23T11:52:55;19.40;;;7.17;;
572;SDS011;271;51.114;13.780;2023-05-23T11:55:52;20.27;;;7.10;;
572;SDS011;271;51.114;13.780;2023-05-23T11:58:42;20.00;;;7.27;;
572;SDS011;271;51.114;13.780;2023-05-23T12:01:30;19.10;;;6.93;;
572;SDS011;271;51.114;13.780;2023-05-23T12:04:19;19.83;;;6.80;;
572;SDS011;271;51.114;13.780;2023-05-23T12:07:07;19.67;;;7.20;;
572;SDS011;271;51.114;13.780;2023-05-23T12:09:54;20.60;;;7.80;;
572;SDS011;271;51.114;13.780;2023-05-23T12:12:42;20.10;;;7.60;;
572;SDS011;271;51.114;13.780;2023-05-23T12:15:32;20.47;;;7.33;;
572;SDS011;271;51.114;13.780;2023-05-23T12:18:20;18.97;;;7.37;;
572;SDS011;271;51.114;13.780;2023-05-23T12:21:08;20.53;;;8.27;;
572;SDS011;271;51.114;13.780;2023-05-23T12:23:55;22.00;;;8.13;;
572;SDS011;271;51.114;13.780;2023-05-23T12:26:47;19.20;;;7.30;;
572;SDS011;271;51.114;13.780;2023-05-23T12:29:36;20.27;;;7.80;;
572;SDS011;271;51.114;13.780;2023-05-23T12:32:25;19.57;;;7.77;;
572;SDS011;271;51.114;13.780;2023-05-23T12:35:13;20.47;;;8.50;;
572;SDS011;271;51.114;13.780;2023-05-23T12:38:04;23.33;;;9.30;;
572;SDS011;271;51.114;13.780;2023-05-23T12:41:06;21.10;;;8.63;;
572;SDS011;271;51.114;13.780;2023-05-23T12:43:55;22.93;;;7.70;;
572;SDS011;271;51.114;13.780;2023-05-23T12:46:43;20.27;;;8.10;;
572;SDS011;271;51.114;13.780;2023-05-23T12:49:32;24.83;;;8.90;;
572;SDS011;271;51.114;13.780;2023-05-23T12:52:19;21.27;;;8.67;;
572;SDS011;271;51.114;13.780;2023-05-23T12:55:07;21.10;;;8.33;;
572;SDS011;271;51.114;13.780;2023-05-23T12:57:57;20.97;;;7.23;;
572;SDS011;271;51.114;13.780;2023-05-23T13:00:44;20.90;;;7.23;;
572;SDS011;271;51.114;13.780;2023-05-23T13:03:32;18.10;;;5.83;;
572;SDS011;271;51.114;13.780;2023-05-23T13:06:21;17.87;;;5.30;;
572;SDS011;271;51.114;13.780;2023-05-23T13:09:09;20.40;;;6.80;;
572;SDS011;271;51.114;13.780;2023-05-23T13:11:57;18.60;;;5.77;;
572;SDS011;271;51.114;13.780;2023-05-23T13:14:45;18.30;;;6.17;;
572;SDS011;271;51.114;13.780;2023-05-23T13:17:33;18.53;;;5.50;;
572;SDS011;271;51.114;13.780;2023-05-23T13:20:21;18.07;;;4.73;;
572;SDS011;271;51.114;13.780;2023-05-23T13:23:10;17.10;;;4.57;;
572;SDS011;271;51.114;13.780;2023-05-23T13:25:57;18.63;;;5.10;;
572;SDS011;271;51.114;13.780;2023-05-23T13:28:45;17.50;;;4.60;;
572;SDS011;271;51.114;13.780;2023-05-23T13:31:33;17.33;;;4.47;;
572;SDS011;271;51.114;13.780;2023-05-23T13:34:20;17.13;;;4.20;;
572;SDS011;271;51.114;13.780;2023-05-23T13:37:08;16.53;;;4.10;;
572;SDS011;271;51.114;13.780;2023-05-23T13:40:00;18.37;;;5.00;;
572;SDS011;271;51.114;13.780;2023-05-23T13:42:49;18.60;;;4.20;;
572;SDS011;271;51.114;13.780;2023-05-23T13:45:37;17.83;;;4.90;;
572;SDS011;271;51.114;13.780;2023-05-23T13:48:25;17.50;;;4.87;;
572;SDS011;271;51.114;13.780;2023-05-23T13:51:13;17.00;;;4.43;;
572;SDS011;271;51.114;13.780;2023-05-23T13:54:00;16.80;;;4.63;;
572;SDS011;271;51.114;13.780;2023-05-23T13:56:50;17.60;;;5.40;;
572;SDS011;271;51.114;13.780;2023-05-23T13:59:37;17.37;;;4.17;;
572;SDS011;271;51.114;13.780;2023-05-23T14:02:25;17.50;;;4.40;;
572;SDS011;271;51.114;13.780;2023-05-23T14:05:13;18.77;;;5.00;;
572;SDS011;271;51.114;13.780;2023-05-23T14:08:01;16.80;;;3.93;;
572;SDS011;271;51.114;13.780;2023-05-23T14:10:49;16.40;;;4.20;;
572;SDS011;271;51.114;13.780;2023-05-23T14:13:38;17.97;;;4.17;;
572;SDS011;271;51.114;13.780;2023-05-23T14:16:26;16.57;;;3.90;;
572;SDS011;271;51.114;13.780;2023-05-23T14:19:13;17.50;;;4.37;;
572;SDS011;271;51.114;13.780;2023-05-23T14:22:01;16.80;;;4.00;;
572;SDS011;271;51.114;13.780;2023-05-23T14:24:50;16.30;;;2.97;;
572;SDS011;271;51.114;13.780;2023-05-23T14:27:37;16.67;;;3.90;;
572;SDS011;271;51.114;13.780;2023-05-23T14:30:27;16.00;;;3.50;;
572;SDS011;271;51.114;13.780;2023-05-23T14:33:15;16.67;;;4.00;;
572;SDS011;271;51.114;13.780;2023-05-23T14:36:03;17.00;;;4.30;;
572;SDS011;271;51.114;13.780;2023-05-23T14:38:51;15.83;;;3.17;;
572;SDS011;271;51.114;13.780;2023-05-23T14:41:39;16.00;;;3.57;;
572;SDS011;271;51.114;13.780;2023-05-23T14:44:26;15.70;;;3.03;;
572;SDS011;271;51.114;13.780;2023-05-23T14:47:15;15.57;;;3.07;;
572;SDS011;271;51.114;13.780;2023-05-23T14:50:04;16.87;;;3.77;;
572;SDS011;271;51.114;13.780;2023-05-23T14:52:53;16.73;;;3.80;;
572;SDS011;271;51.114;13.780;2023-05-23T14:55:41;16.33;;;3.50;;
572;SDS011;271;51.114;13.780;2023-05-23T14:58:29;17.57;;;4.30;;
572;SDS011;271;51.114;13.780;2023-05-23T15:01:16;18.00;;;4.57;;
572;SDS011;271;51.114;13.780;2023-05-23T15:04:06;17.70;;;5.00;;
572;SDS011;271;51.114;13.780;2023-05-23T15:06:54;19.57;;;5.47;;
572;SDS011;271;51.114;13.780;2023-05-23T15:09:42;17.90;;;5.10;;
572;SDS011;271;51.114;13.780;2023-05-23T15:12:31;17.13;;;4.53;;
572;SDS011;271;51.114;13.780;2023-05-23T15:15:18;17.50;;;5.10;;
572;SDS011;271;51.114;13.780;2023-05-23T15:18:08;17.83;;;5.23;;
572;SDS011;271;51.114;13.780;2023-05-23T15:21:00;17.53;;;5.37;;
572;SDS011;271;51.114;13.780;2023-05-23T15:23:47;17.77;;;5.53;;
572;SDS011;271;51.114;13.780;2023-05-23T15:26:35;19.20;;;6.27;;
572;SDS011;271;51.114;13.780;2023-05-23T15:29:23;19.10;;;5.40;;
572;SDS011;271;51.114;13.780;2023-05-23T15:32:11;18.17;;;5.50;;
572;SDS011;271;51.114;13.780;2023-05-23T15:34:59;17.97;;;5.50;;
572;SDS011;271;51.114;13.780;2023-05-23T15:37:48;18.30;;;5.50;;
572;SDS011;271;51.114;13.780;2023-05-23T15:40:36;17.43;;;5.13;;
572;SDS011;271;51.114;13.780;2023-05-23T15:43:24;17.63;;;5.50;;
572;SDS011;271;51.114;13.780;2023-05-23T15:46:11;17.10;;;5.10;;
572;SDS011;271;51.114;13.780;2023-05-23T15:48:59;18.57;;;5.37;;
572;SDS011;271;51.114;13.780;2023-05-23T15:51:47;16.73;;;4.50;;
572;SDS011;271;51.114;13.780;2023-05-23T15:54:36;17.47;;;4.80;;
572;SDS011;271;51.114;13.780;2023-05-23T15:57:24;16.70;;;3.87;;
572;SDS011;271;51.114;13.780;2023-05-23T16:00:12;18.40;;;3.63;;
572;SDS011;271;51.114;13.780;2023-05-23T16:03:01;16.33;;;3.90;;
572;SDS011;271;51.114;13.780;2023-05-23T16:05:49;16.90;;;4.50;;
572;SDS011;271;51.114;13.780;2023-05-23T16:08:36;17.27;;;4.50;;
572;SDS011;271;51.114;13.780;2023-05-23T16:11:26;17.30;;;4.53;;
572;SDS011;271;51.114;13.780;2023-05-23T16:14:14;16.70;;;3.90;;
572;SDS011;271;51.114;13.780;2023-05-23T16:17:01;16.60;;;4.07;;
572;SDS011;271;51.114;13.780;2023-05-23T16:19:51;19.17;;;4.33;;
572;SDS011;271;51.114;13.780;2023-05-23T16:22:39;17.90;;;4.43;;
572;SDS011;271;51.114;13.780;2023-05-23T16:25:27;17.20;;;4.33;;
572;SDS011;271;51.114;13.780;2023-05-23T16:28:16;16.23;;;3.90;;
572;SDS011;271;51.114;13.780;2023-05-23T16:31:06;17.60;;;4.97;;
572;SDS011;271;51.114;13.780;2023-05-23T16:33:54;17.30;;;4.70;;
572;SDS011;271;51.114;13.780;2023-05-23T16:36:43;18.70;;;5.60;;
572;SDS011;271;51.114;13.780;2023-05-23T16:39:31;18.27;;;5.67;;
572;SDS011;271;51.114;13.780;2023-05-23T16:42:18;19.03;;;5.83;;
572;SDS011;271;51.114;13.780;2023-05-23T16:45:08;17.57;;;4.73;;
572;SDS011;271;51.114;13.780;2023-05-23T16:47:56;19.23;;;5.00;;
572;SDS011;271;51.114;13.780;2023-05-23T16:50:45;18.83;;;4.53;;
572;SDS011;271;51.114;13.780;2023-05-23T16:53:33;18.47;;;5.20;;
572;SDS011;271;51.114;13.780;2023-05-23T16:56:21;18.63;;;5.37;;
572;SDS011;271;51.114;13.780;2023-05-23T16:59:08;19.50;;;5.30;;
572;SDS011;271;51.114;13.780;2023-05-23T17:01:58;18.87;;;5.07;;
572;SDS011;271;51.114;13.780;2023-05-23T17:04:45;19.17;;;4.97;;
572;SDS011;271;51.114;13.780;2023-05-23T17:07:33;17.77;;;3.50;;
572;SDS011;271;51.114;13.780;2023-05-23T17:10:21;20.20;;;4.57;;
572;SDS011;271;51.114;13.780;2023-05-23T17:13:09;19.20;;;4.10;;
572;SDS011;271;51.114;13.780;2023-05-23T17:15:57;17.80;;;2.93;;
572;SDS011;271;51.114;13.780;2023-05-23T17:18:46;19.17;;;4.57;;
572;SDS011;271;51.114;13.780;2023-05-23T17:21:33;18.90;;;4.40;;
572;SDS011;271;51.114;13.780;2023-05-23T17:24:21;18.90;;;4.27;;
572;SDS011;271;51.114;13.780;2023-05-23T17:27:09;19.50;;;4.53;;
572;SDS011;271;51.114;13.780;2023-05-23T17:29:56;19.70;;;4.37;;
572;SDS011;271;51.114;13.780;2023-05-23T17:32:45;18.10;;;3.20;;
572;SDS011;271;51.114;13.780;2023-05-23T17:35:34;17.73;;;2.80;;
572;SDS011;271;51.114;13.780;2023-05-23T17:38:22;18.10;;;3.47;;
572;SDS011;271;51.114;13.780;2023-05-23T17:41:10;19.03;;;3.93;;
572;SDS011;271;51.114;13.780;2023-05-23T17:43:59;17.80;;;2.93;;
572;SDS011;271;51.114;13.780;2023-05-23T17:46:48;18.40;;;3.33;;
572;SDS011;271;51.114;13.780;2023-05-23T17:49:36;17.80;;;2.93;;
572;SDS011;271;51.114;13.780;2023-05-23T17:52:27;17.80;;;2.73;;
572;SDS011;271;51.114;13.780;2023-05-23T17:55:15;18.07;;;2.90;;